Terminal Aerodrome Forecast
Issued by NWS Buffalo, NY

Home | Current Version | Previous Version | Text Only | Print | Product List | Glossary On
Versions: 1 2 3 4 5 6 7 8 9 10 11 12 13 14 15 16 17 18 19 20 21 22 23 24 25 26 27 28
498
FTUS41 KBUF 112011 AAA
TAFROC
TAF AMD
KROC 112011Z 1120/1218 29018G27KT 6SM -SN BLSN SCT025 BKN035
      TEMPO 1120/1124 2SM -SN BKN020
     FM120100 28014KT P6SM BKN020
     FM120400 27011KT P6SM SCT020
     FM121600 22010G21KT P6SM BKN035
     FM121700 22012G22KT P6SM VCSH BKN025=

USA.gov is the U.S. government's official web portal to all federal, state and local government web resources and services.